Time;durP1;ratioP1;P1;durP2;ratioP2;P2;SDS_P1;SDS_P2;PMS_P1;PMS_P2;Temp;Humidity;BMP_temperature;BMP_pressure;BME280_temperature;BME280_humidity;BME280_pressure;Samples;Min_cycle;Max_cycle;Signal;HPM_P1;HPM_P2
2023/08/21 00:00:31;;;;;;;7.80;6.03;;;;;;;23.50;100.00;101487.78;2073136;28;20185;-69
2023/08/21 00:01:32;;;;;;;6.73;5.93;;;;;;;24.09;100.00;101577.34;2073341;28;20275;-69
2023/08/21 00:02:32;;;;;;;6.33;5.63;;;;;;;24.09;100.00;101571.69;2072574;28;20252;-69
2023/08/21 00:03:33;;;;;;;10.10;5.93;;;;;;;24.11;100.00;101574.00;2066788;28;20201;-69
2023/08/21 00:04:34;;;;;;;6.47;5.90;;;;;;;24.12;100.00;101567.06;2070638;28;20543;-69
2023/08/21 00:05:34;;;;;;;7.10;6.23;;;;;;;24.12;100.00;101567.84;2072027;28;20275;-69
2023/08/21 00:06:35;;;;;;;6.83;6.10;;;;;;;24.03;100.00;101555.91;2071880;28;20340;-69
2023/08/21 00:07:35;;;;;;;6.27;5.67;;;;;;;24.13;100.00;101569.41;2071437;28;20182;-69
2023/08/21 00:08:35;;;;;;;6.97;6.27;;;;;;;24.12;100.00;101569.91;2073106;28;20173;-69
2023/08/21 00:09:36;;;;;;;7.27;6.40;;;;;;;24.13;100.00;101571.44;2073150;28;20190;-69
2023/08/21 00:10:40;;;;;;;9.23;6.33;;;;;;;24.11;100.00;101559.84;2072731;28;20201;-69
2023/08/21 00:11:41;;;;;;;8.67;6.23;;;;;;;24.15;100.00;101568.91;2072669;28;20703;-69
2023/08/21 00:12:41;;;;;;;8.90;6.37;;;;;;;24.12;100.00;101570.69;2072993;28;20786;-69
2023/08/21 00:13:44;;;;;;;8.23;6.07;;;;;;;24.11;100.00;101560.63;2073227;28;20181;-69
2023/08/21 00:14:44;;;;;;;7.43;5.77;;;;;;;24.06;100.00;101552.09;2072996;28;20209;-69
2023/08/21 00:15:45;;;;;;;8.33;5.67;;;;;;;24.12;100.00;101561.41;2071540;28;20182;-69
2023/08/21 00:16:45;;;;;;;10.53;6.63;;;;;;;24.12;100.00;101567.06;2071942;28;20249;-69
2023/08/21 00:17:46;;;;;;;9.83;6.27;;;;;;;23.85;100.00;101527.97;2072037;28;20678;-69
2023/08/21 00:18:47;;;;;;;8.00;6.07;;;;;;;24.09;100.00;101568.84;2072629;28;20631;-69
2023/08/21 00:19:47;;;;;;;6.80;6.10;;;;;;;24.12;100.00;101567.06;2072746;28;20193;-69
2023/08/21 00:20:47;;;;;;;11.37;6.40;;;;;;;24.13;100.00;101565.78;2072787;28;20213;-69
2023/08/21 00:21:48;;;;;;;7.10;6.50;;;;;;;24.16;100.00;101568.38;2072385;28;20658;-69
2023/08/21 00:22:48;;;;;;;8.63;5.83;;;;;;;24.15;100.00;101566.06;2072951;28;20583;-69
2023/08/21 00:23:48;;;;;;;9.03;6.63;;;;;;;24.16;100.00;101570.44;2072159;28;20209;-69
2023/08/21 00:24:49;;;;;;;7.93;6.47;;;;;;;24.03;100.00;101555.91;2071964;28;20182;-69
2023/08/21 00:25:49;;;;;;;6.40;5.80;;;;;;;24.14;100.00;101570.16;2072113;28;20188;-69
2023/08/21 00:26:50;;;;;;;7.93;6.53;;;;;;;24.13;100.00;101568.63;2072199;28;20191;-69
2023/08/21 00:27:50;;;;;;;6.83;6.13;;;;;;;24.15;100.00;101572.50;2072592;28;20284;-69
2023/08/21 00:28:50;;;;;;;8.97;6.20;;;;;;;24.17;100.00;101572.00;2071205;28;20284;-69
2023/08/21 00:29:51;;;;;;;8.00;6.33;;;;;;;24.17;100.00;101575.63;2071582;28;20729;-69
2023/08/21 00:30:59;;;;;;;7.47;6.40;;;;;;;24.19;100.00;101575.88;2073593;28;20761;-69
2023/08/21 00:32:00;;;;;;;8.93;6.37;;;;;;;24.20;100.00;101579.50;2064741;28;20744;-67
2023/08/21 00:33:00;;;;;;;8.40;6.40;;;;;;;24.16;100.00;101584.59;2072250;28;20197;-69
2023/08/21 00:34:00;;;;;;;6.97;6.30;;;;;;;24.04;100.00;101561.09;2072595;28;20182;-69
2023/08/21 00:35:01;;;;;;;7.10;6.30;;;;;;;24.13;100.00;101579.94;2074517;28;20371;-69
2023/08/21 00:36:01;;;;;;;8.23;6.30;;;;;;;23.67;100.00;101514.94;2075855;28;20202;-69
2023/08/21 00:37:02;;;;;;;9.13;6.60;;;;;;;24.07;100.00;101585.56;2072203;28;20197;-69
2023/08/21 00:38:02;;;;;;;8.33;6.43;;;;;;;24.05;100.00;101576.78;2072392;28;20177;-69
2023/08/21 00:39:02;;;;;;;11.70;6.27;;;;;;;24.12;100.00;101575.56;2071571;28;20189;-69
2023/08/21 00:40:03;;;;;;;8.27;6.70;;;;;;;23.73;100.00;101512.94;2072079;28;20232;-69
2023/08/21 00:41:04;;;;;;;8.53;6.37;;;;;;;24.06;100.00;101558.50;2072827;28;20259;-69
2023/08/21 00:42:05;;;;;;;8.83;6.37;;;;;;;24.15;100.00;101574.56;2072304;28;20260;-69
2023/08/21 00:43:05;;;;;;;9.53;6.53;;;;;;;24.18;100.00;101574.31;2072343;28;20699;-69
2023/08/21 00:44:05;;;;;;;9.97;6.60;;;;;;;23.85;100.00;101513.81;2072960;28;20671;-69
2023/08/21 00:45:08;;;;;;;11.03;6.50;;;;;;;23.58;100.00;101480.38;2072534;28;20193;-69
2023/08/21 00:46:09;;;;;;;8.47;6.57;;;;;;;24.18;100.00;101571.50;2071962;28;20587;-69
2023/08/21 00:47:09;;;;;;;7.17;6.03;;;;;;;24.22;100.00;101579.75;2071819;28;20197;-69
2023/08/21 00:48:11;;;;;;;8.17;6.30;;;;;;;23.76;100.00;101503.44;2072893;28;20663;-69
2023/08/21 00:49:12;;;;;;;8.60;6.13;;;;;;;24.21;100.00;101573.31;2065098;28;20652;-69
2023/08/21 00:50:13;;;;;;;11.47;6.27;;;;;;;24.12;100.00;101572.72;2070275;28;20626;-69
2023/08/21 00:51:16;;;;;;;9.17;6.60;;;;;;;24.15;100.00;101580.22;2079605;28;20201;-69
2023/08/21 00:52:17;;;;;;;7.47;6.20;;;;;;;24.13;100.00;101580.72;2079016;28;20701;-69
2023/08/21 00:53:18;;;;;;;9.90;6.70;;;;;;;24.11;100.00;101580.44;2072768;28;20201;-69
2023/08/21 00:54:19;;;;;;;7.50;6.37;;;;;;;24.09;100.00;101594.34;2072825;28;20200;-69
2023/08/21 00:55:20;;;;;;;7.87;6.40;;;;;;;24.06;100.00;101586.84;2072212;28;20657;-69
2023/08/21 00:56:21;;;;;;;8.07;6.47;;;;;;;24.09;100.00;101591.50;2071382;28;20255;-69
2023/08/21 00:57:23;;;;;;;7.43;6.60;;;;;;;24.14;100.00;101587.94;2072043;28;20231;-69
2023/08/21 00:58:23;;;;;;;7.00;6.30;;;;;;;24.13;100.00;101592.06;2065264;28;20293;-69
2023/08/21 00:59:23;;;;;;;8.20;6.60;;;;;;;24.14;100.00;101585.09;2079072;28;20188;-69
2023/08/21 01:00:26;;;;;;;11.80;7.00;;;;;;;23.46;100.00;101484.41;2079043;28;20223;-69
2023/08/21 01:01:28;;;;;;;9.33;6.50;;;;;;;24.07;100.00;101584.78;2071404;28;20197;-69
2023/08/21 01:02:28;;;;;;;9.63;6.73;;;;;;;24.06;100.00;101594.56;2072363;28;20651;-69
2023/08/21 01:03:29;;;;;;;13.53;7.07;;;;;;;23.35;100.00;101506.94;2072746;28;20587;-69
2023/08/21 01:04:29;;;;;;;8.20;6.90;;;;;;;24.06;100.00;101589.66;2073125;28;20202;-69
2023/08/21 01:05:30;;;;;;;7.70;6.97;;;;;;;23.63;100.00;101537.03;2071667;28;20190;-69
2023/08/21 01:06:30;;;;;;;7.57;6.43;;;;;;;24.05;100.00;101599.44;2072009;28;20651;-69
2023/08/21 01:07:44;;;;;;;9.00;6.53;;;;;;;24.03;100.00;101592.72;2072343;28;20636;-69
2023/08/21 01:08:56;;;;;;;8.67;6.80;;;;;;;23.70;100.00;101549.97;2075468;28;20166;-69
2023/08/21 01:10:08;;;;;;;9.03;6.53;;;;;;;23.32;100.00;101494.56;2068209;28;20174;-69
2023/08/21 01:11:12;;;;;;;8.73;6.40;;;;;;;23.63;100.00;101542.69;2069457;28;20264;-69
2023/08/21 01:12:23;;;;;;;7.37;6.20;;;;;;;23.93;100.00;101602.69;2063735;28;20206;-69
2023/08/21 01:13:32;;;;;;;12.13;7.27;;;;;;;23.93;100.00;101594.19;2065018;28;20171;-69
2023/08/21 01:14:50;;;;;;;12.10;7.43;;;;;;;23.94;100.00;101592.91;2070086;28;20186;-69
2023/08/21 01:15:53;;;;;;;10.20;6.60;;;;;;;23.57;100.00;101530.56;2071607;28;20590;-69
2023/08/21 01:16:58;;;;;;;17.93;7.33;;;;;;;23.92;100.00;101582.09;2079086;28;20327;-69
2023/08/21 01:17:59;;;;;;;16.00;7.60;;;;;;;23.75;100.00;101561.31;2064713;28;20177;-69
2023/08/21 01:19:01;;;;;;;14.43;7.03;;;;;;;23.90;100.00;101589.53;2071732;28;20678;-69
2023/08/21 01:20:02;;;;;;;15.00;7.17;;;;;;;23.72;100.00;101564.38;2072312;28;20276;-69
2023/08/21 01:21:04;;;;;;;17.43;8.23;;;;;;;23.40;100.00;101540.16;2072528;28;20200;-69
2023/08/21 01:22:05;;;;;;;20.63;8.23;;;;;;;23.81;100.00;101598.19;2071300;28;20185;-69
2023/08/21 01:23:06;;;;;;;25.20;8.53;;;;;;;23.76;100.00;101596.06;2071318;28;20643;-69
2023/08/21 01:24:06;;;;;;;17.47;8.00;;;;;;;23.74;100.00;101602.22;2072147;28;20188;-69
2023/08/21 01:25:10;;;;;;;9.70;6.63;;;;;;;23.63;100.00;101599.28;2071913;28;20178;-69
2023/08/21 01:26:11;;;;;;;11.70;7.10;;;;;;;23.58;100.00;101600.00;2071565;28;20177;-69
2023/08/21 01:27:14;;;;;;;10.93;6.87;;;;;;;23.51;100.00;101605.31;2072426;28;20675;-69
2023/08/21 01:28:14;;;;;;;20.10;7.70;;;;;;;23.52;100.00;101598.38;2071585;28;20170;-69
2023/08/21 01:29:15;;;;;;;14.83;7.77;;;;;;;23.48;100.00;101589.34;2072825;28;20710;-69
2023/08/21 01:30:17;;;;;;;16.77;7.43;;;;;;;23.55;100.00;101603.06;2072143;28;20559;-69
2023/08/21 01:31:24;;;;;;;9.73;7.00;;;;;;;23.55;100.00;101601.00;2072487;28;20259;-69
2023/08/21 01:32:41;;;;;;;10.40;7.43;;;;;;;23.53;100.00;101603.56;2070951;28;20220;-69
2023/08/21 01:33:47;;;;;;;10.57;7.57;;;;;;;23.51;100.00;101602.50;2071918;28;20200;-69
2023/08/21 01:34:51;;;;;;;11.67;7.20;;;;;;;23.51;100.00;101611.00;2071870;28;20272;-69
2023/08/21 01:35:51;;;;;;;9.50;7.17;;;;;;;23.45;100.00;101604.50;2070813;28;20502;-69
2023/08/21 01:36:52;;;;;;;9.17;7.13;;;;;;;23.14;100.00;101573.25;2071169;28;20241;-69
2023/08/21 01:37:52;;;;;;;8.83;7.33;;;;;;;23.39;100.00;101610.06;2072241;28;20205;-69
2023/08/21 01:38:53;;;;;;;10.07;6.93;;;;;;;23.32;100.00;101598.41;2071835;28;20248;-69
2023/08/21 01:39:54;;;;;;;7.67;6.90;;;;;;;22.86;100.00;101541.81;2072013;28;20169;-69
2023/08/21 01:40:54;;;;;;;11.20;7.33;;;;;;;23.32;100.00;101607.69;2072569;28;20216;-69
2023/08/21 01:41:56;;;;;;;17.80;7.67;;;;;;;23.34;100.00;101612.84;2072210;28;20588;-69
2023/08/21 01:42:56;;;;;;;18.47;7.47;;;;;;;23.33;100.00;101614.16;2071619;28;20236;-69
2023/08/21 01:43:57;;;;;;;22.17;7.87;;;;;;;23.34;100.00;101613.63;2071551;28;20197;-69
2023/08/21 01:44:57;;;;;;;23.80;8.20;;;;;;;23.32;100.00;101609.75;2072775;28;20224;-69
2023/08/21 01:45:58;;;;;;;15.87;7.23;;;;;;;23.31;100.00;101608.97;2070446;28;20196;-69
2023/08/21 01:46:58;;;;;;;19.50;7.93;;;;;;;22.91;100.00;101543.16;2071907;28;20177;-69
2023/08/21 01:47:59;;;;;;;19.03;7.77;;;;;;;23.28;100.00;101615.63;2073045;28;20186;-69
2023/08/21 01:48:59;;;;;;;15.50;7.53;;;;;;;23.04;100.00;101567.00;2080522;28;20680;-69
2023/08/21 01:49:59;;;;;;;17.77;7.73;;;;;;;23.09;100.00;101580.38;2072154;28;20212;-69
2023/08/21 01:51:03;;;;;;;13.73;7.63;;;;;;;23.32;100.00;101606.91;2072268;28;20193;-69
2023/08/21 01:52:03;;;;;;;16.43;7.80;;;;;;;23.34;100.00;101610.78;2072281;28;20406;-69
2023/08/21 01:53:04;;;;;;;14.43;7.83;;;;;;;23.33;100.00;101614.16;2072030;28;20198;-69
2023/08/21 01:54:04;;;;;;;12.77;7.37;;;;;;;23.32;100.00;101613.34;2071063;28;20244;-69
2023/08/21 01:55:07;;;;;;;14.70;8.07;;;;;;;23.35;100.00;101617.25;2071125;28;20209;-69
2023/08/21 01:56:08;;;;;;;8.63;7.07;;;;;;;23.31;100.00;101613.84;2071380;28;20208;-69
2023/08/21 01:57:08;;;;;;;12.73;7.30;;;;;;;23.08;100.00;101598.63;2071794;28;20651;-69
2023/08/21 01:58:09;;;;;;;8.70;7.40;;;;;;;23.19;100.00;101615.00;2072838;28;20174;-69
2023/08/21 01:59:09;;;;;;;7.73;6.93;;;;;;;23.21;100.00;101604.75;2071473;28;20198;-69
2023/08/21 02:00:10;;;;;;;8.80;6.97;;;;;;;23.22;100.00;101602.66;2071923;28;20367;-69
2023/08/21 02:01:11;;;;;;;9.33;6.63;;;;;;;22.79;100.00;101535.81;2072204;28;20552;-69
2023/08/21 02:02:11;;;;;;;8.53;6.80;;;;;;;23.09;100.00;101582.44;2072262;28;20212;-69
2023/08/21 02:03:11;;;;;;;9.50;7.13;;;;;;;23.21;100.00;101601.91;2071934;28;20637;-69
2023/08/21 02:04:12;;;;;;;7.73;6.90;;;;;;;23.25;100.00;101605.31;2070758;28;20192;-69
2023/08/21 02:05:12;;;;;;;7.93;6.43;;;;;;;22.78;100.00;101535.03;2070820;28;20319;-69
2023/08/21 02:06:13;;;;;;;8.73;7.50;;;;;;;23.23;100.00;101601.44;2071726;28;20371;-69
2023/08/21 02:07:13;;;;;;;11.30;7.23;;;;;;;23.22;100.00;101603.47;2072019;28;20308;-69
2023/08/21 02:08:14;;;;;;;11.10;7.10;;;;;;;23.22;100.00;101608.31;2071863;28;20185;-69
2023/08/21 02:09:15;;;;;;;13.97;7.93;;;;;;;23.21;100.00;101613.22;2071963;28;20192;-69
2023/08/21 02:10:15;;;;;;;9.13;7.17;;;;;;;;;;2071592;28;20224;-69
2023/08/21 02:11:15;;;;;;;11.27;7.50;;;;;;;23.19;100.00;101615.00;2071674;28;20194;-69
2023/08/21 02:12:16;;;;;;;8.40;7.10;;;;;;;23.18;100.00;101610.63;2071422;28;20714;-69
2023/08/21 02:13:18;;;;;;;8.37;7.00;;;;;;;23.18;100.00;101614.22;2072206;28;20187;-69
2023/08/21 02:14:19;;;;;;;11.17;7.33;;;;;;;23.22;100.00;101614.78;2072253;28;20667;-69
2023/08/21 02:15:21;;;;;;;9.40;7.30;;;;;;;23.21;100.00;101613.22;2069562;28;20652;-69
2023/08/21 02:16:22;;;;;;;7.87;6.80;;;;;;;22.74;100.00;101553.47;2070070;28;20663;-69
2023/08/21 02:17:25;;;;;;;10.37;7.27;;;;;;;;;;2071376;28;20559;-69
2023/08/21 02:18:26;;;;;;;8.37;7.10;;;;;;;22.29;100.00;101484.28;2072169;28;20565;-69
2023/08/21 02:19:26;;;;;;;11.80;7.67;;;;;;;23.16;100.00;101624.44;2071930;28;20212;-69
2023/08/21 02:20:26;;;;;;;10.73;7.47;;;;;;;23.13;100.00;101614.88;2071586;28;20224;-69
2023/08/21 02:21:27;;;;;;;9.63;7.50;;;;;;;23.15;100.00;101626.50;2071491;28;20192;-69
2023/08/21 02:22:27;;;;;;;14.17;7.90;;;;;;;23.14;100.00;101619.25;2071378;28;20690;-69
2023/08/21 02:23:29;;;;;;;13.87;8.03;;;;;;;23.10;100.00;101623.59;2072684;28;20252;-69
2023/08/21 02:24:29;;;;;;;12.33;7.80;;;;;;;22.94;100.00;101598.72;2071787;28;20185;-69
2023/08/21 02:25:30;;;;;;;10.20;7.50;;;;;;;23.12;100.00;101621.81;2070125;28;20207;-69
2023/08/21 02:26:30;;;;;;;10.90;7.17;;;;;;;23.10;100.00;101620.75;2069157;28;20722;-69
2023/08/21 02:27:31;;;;;;;10.60;7.40;;;;;;;23.11;100.00;101625.91;2075462;28;20671;-69
2023/08/21 02:28:33;;;;;;;10.80;7.43;;;;;;;22.93;100.00;101605.63;2076169;28;20214;-69
2023/08/21 02:29:33;;;;;;;9.83;7.47;;;;;;;23.08;100.00;101623.31;2071024;28;20205;-69
2023/08/21 02:30:33;;;;;;;8.27;7.30;;;;;;;23.08;100.00;101626.13;2071279;28;20174;-69
2023/08/21 02:31:34;;;;;;;11.67;7.57;;;;;;;22.72;100.00;101564.50;2071979;28;20185;-69
2023/08/21 02:32:35;;;;;;;8.40;7.50;;;;;;;23.08;100.00;101621.25;2072334;28;20181;-69
2023/08/21 02:33:35;;;;;;;9.73;7.67;;;;;;;23.09;100.00;101622.78;2071455;28;20228;-69
2023/08/21 02:34:36;;;;;;;9.60;6.93;;;;;;;22.39;100.00;101521.63;2070323;28;20259;-69
2023/08/21 02:35:36;;;;;;;9.07;7.07;;;;;;;22.13;100.00;101500.97;2071285;28;20255;-69
2023/08/21 02:36:37;;;;;;;8.40;7.00;;;;;;;22.91;100.00;101625.91;2069937;28;20223;-69
2023/08/21 02:37:38;;;;;;;8.33;7.23;;;;;;;22.56;100.00;101571.47;2071337;28;20236;-69
2023/08/21 02:38:39;;;;;;;9.57;7.37;;;;;;;22.31;100.00;101540.28;2070481;28;20248;-69
2023/08/21 02:39:39;;;;;;;9.47;7.20;;;;;;;22.83;100.00;101624.75;2075229;28;20315;-69
2023/08/21 02:40:40;;;;;;;8.97;7.10;;;;;;;22.83;100.00;101613.47;2079730;28;20179;-69
2023/08/21 02:41:40;;;;;;;9.30;7.50;;;;;;;22.76;100.00;101624.41;2072031;28;20276;-69
2023/08/21 02:42:40;;;;;;;10.07;7.30;;;;;;;22.51;100.00;101589.13;2071829;28;20654;-69
2023/08/21 02:43:41;;;;;;;8.83;7.37;;;;;;;22.74;100.00;101616.44;2071792;28;20264;-69
2023/08/21 02:44:41;;;;;;;11.10;7.00;;;;;;;22.29;100.00;101552.06;2070705;28;20212;-69
2023/08/21 02:45:42;;;;;;;8.47;7.53;;;;;;;22.71;100.00;101623.06;2070429;28;20261;-69
2023/08/21 02:46:42;;;;;;;10.17;7.07;;;;;;;22.70;100.00;101621.50;2070766;28;20178;-69
2023/08/21 02:47:43;;;;;;;8.53;7.67;;;;;;;22.70;100.00;101620.72;2070420;28;20587;-69
2023/08/21 02:48:43;;;;;;;8.90;7.20;;;;;;;22.25;100.00;101545.84;2071954;28;20594;-69
2023/08/21 02:49:44;;;;;;;10.83;7.57;;;;;;;22.35;100.00;101569.84;2071563;28;20221;-69
2023/08/21 02:50:44;;;;;;;10.27;7.77;;;;;;;22.73;100.00;101622.56;2071825;28;20280;-69
2023/08/21 02:51:44;;;;;;;10.70;8.13;;;;;;;22.73;100.00;101623.34;2071735;28;20201;-69
2023/08/21 02:52:46;;;;;;;10.00;7.93;;;;;;;22.71;100.00;101625.88;2071667;28;20194;-69
2023/08/21 02:53:46;;;;;;;9.20;8.00;;;;;;;22.73;100.00;101628.22;2072011;28;20324;-69
2023/08/21 02:54:47;;;;;;;10.27;8.43;;;;;;;22.30;100.00;101552.81;2071454;28;20253;-69
2023/08/21 02:55:47;;;;;;;11.87;8.80;;;;;;;22.35;100.00;101567.03;2071130;28;20240;-69
2023/08/21 02:56:48;;;;;;;12.73;8.40;;;;;;;22.71;100.00;101625.88;2071525;28;20602;-69
2023/08/21 02:57:48;;;;;;;11.97;8.23;;;;;;;22.72;100.00;101629.50;2070687;28;20205;-69
2023/08/21 02:58:48;;;;;;;12.73;8.80;;;;;;;22.70;100.00;101630.00;2071300;28;20372;-69
2023/08/21 02:59:49;;;;;;;13.07;8.90;;;;;;;22.69;100.00;101628.44;2066329;28;20284;-69
2023/08/21 03:00:49;;;;;;;12.07;8.40;;;;;;;22.66;100.00;101623.75;2068392;28;20311;-69
2023/08/21 03:01:50;;;;;;;13.13;9.43;;;;;;;22.62;100.00;101628.84;2070932;28;20208;-69
2023/08/21 03:02:50;;;;;;;13.23;8.40;;;;;;;22.63;100.00;101627.56;2071837;28;20181;-69
2023/08/21 03:03:51;;;;;;;14.37;8.57;;;;;;;22.63;100.00;101618.31;2071789;28;20185;-69
2023/08/21 03:04:52;;;;;;;17.30;8.93;;;;;;;22.64;100.00;101631.16;2072002;28;20943;-69
2023/08/21 03:05:52;;;;;;;12.23;8.47;;;;;;;22.64;100.00;101631.97;2070864;28;20662;-69
2023/08/21 03:06:53;;;;;;;14.80;9.03;;;;;;;22.63;100.00;101626.78;2070635;28;20209;-69
2023/08/21 03:07:53;;;;;;;15.43;8.97;;;;;;;22.61;100.00;101629.34;2071855;28;20197;-69
2023/08/21 03:08:53;;;;;;;18.50;8.80;;;;;;;22.58;100.00;101628.28;2070813;28;20248;-69
2023/08/21 03:09:54;;;;;;;14.47;8.90;;;;;;;22.15;100.00;101566.97;2071395;28;20220;-69
2023/08/21 03:10:54;;;;;;;20.27;9.03;;;;;;;22.43;100.00;101613.38;2071365;28;20540;-69
2023/08/21 03:11:55;;;;;;;15.00;8.97;;;;;;;22.56;100.00;101630.81;2071606;28;20562;-69
2023/08/21 03:12:55;;;;;;;11.33;8.57;;;;;;;22.52;100.00;101630.22;2071796;28;20185;-69
2023/08/21 03:13:55;;;;;;;14.67;8.57;;;;;;;22.51;100.00;101633.56;2064345;28;20181;-69
2023/08/21 03:14:56;;;;;;;12.00;8.40;;;;;;;22.46;100.00;101622.97;2070529;28;20186;-69
2023/08/21 03:15:56;;;;;;;12.63;8.03;;;;;;;22.50;100.00;101629.94;2070320;28;20335;-69
2023/08/21 03:16:57;;;;;;;10.53;7.97;;;;;;;22.49;100.00;101619.94;2071164;28;20197;-69
2023/08/21 03:17:57;;;;;;;11.13;8.50;;;;;;;22.47;100.00;101632.97;2071798;28;20193;-69
2023/08/21 03:19:00;;;;;;;11.33;8.97;;;;;;;22.48;100.00;101626.84;2070748;28;20256;-69
2023/08/21 03:20:00;;;;;;;11.00;8.40;;;;;;;22.47;100.00;101627.31;2069714;28;20197;-69
2023/08/21 03:21:01;;;;;;;9.13;8.33;;;;;;;22.43;100.00;101626.72;2071732;28;20261;-69
2023/08/21 03:22:01;;;;;;;8.87;7.90;;;;;;;22.39;100.00;101623.31;2072242;28;20622;-69
2023/08/21 03:23:02;;;;;;;10.73;7.87;;;;;;;22.36;100.00;101619.41;2073092;28;20753;-69
2023/08/21 03:24:02;;;;;;;8.70;7.80;;;;;;;22.39;100.00;101624.09;2072294;28;20289;-69
2023/08/21 03:25:03;;;;;;;8.87;7.97;;;;;;;22.38;100.00;101625.38;2072407;28;20673;-69
2023/08/21 03:26:04;;;;;;;10.33;8.40;;;;;;;22.39;100.00;101623.31;2072551;28;20197;-69
2023/08/21 03:27:04;;;;;;;9.70;7.90;;;;;;;22.44;100.00;101628.28;2072583;28;20201;-69
2023/08/21 03:28:05;;;;;;;9.40;8.40;;;;;;;22.13;100.00;101580.03;2073751;28;20170;-69
2023/08/21 03:29:05;;;;;;;11.97;8.93;;;;;;;22.45;100.00;101627.03;2072794;28;20265;-69
2023/08/21 03:30:07;;;;;;;13.13;8.97;;;;;;;22.45;100.00;101622.16;2072367;28;20182;-69
2023/08/21 03:31:07;;;;;;;9.97;8.40;;;;;;;22.46;100.00;101629.38;2073303;28;20663;-69
2023/08/21 03:32:07;;;;;;;11.23;8.67;;;;;;;22.48;100.00;101621.19;2072839;28;20538;-69
2023/08/21 03:33:08;;;;;;;12.87;8.90;;;;;;;22.47;100.00;101630.16;2072950;28;20200;-69
2023/08/21 03:34:08;;;;;;;12.47;9.10;;;;;;;22.46;100.00;101609.59;2073333;28;20276;-69
2023/08/21 03:35:09;;;;;;;14.40;8.90;;;;;;;22.17;100.00;101558.81;2072584;28;20198;-69
2023/08/21 03:36:09;;;;;;;12.23;9.13;;;;;;;22.48;100.00;101620.41;2072331;28;20185;-69
2023/08/21 03:37:10;;;;;;;11.63;9.67;;;;;;;22.51;100.00;101619.44;2072597;28;20189;-69
2023/08/21 03:38:11;;;;;;;10.93;8.60;;;;;;;22.50;100.00;101618.66;2073267;28;20189;-69
2023/08/21 03:39:11;;;;;;;11.33;9.07;;;;;;;22.26;100.00;101578.44;2073942;28;20185;-69
2023/08/21 03:40:12;;;;;;;12.50;9.27;;;;;;;22.50;100.00;101627.13;2072231;28;20282;-69
2023/08/21 03:41:12;;;;;;;11.60;9.10;;;;;;;22.50;100.00;101620.69;2072315;28;20315;-70
2023/08/21 03:42:13;;;;;;;15.67;9.73;;;;;;;22.34;100.00;101599.38;2072745;28;20343;-69
2023/08/21 03:43:13;;;;;;;14.57;9.17;;;;;;;22.41;100.00;101620.78;2073112;28;20189;-69
2023/08/21 03:44:14;;;;;;;10.57;8.37;;;;;;;22.38;100.00;101622.56;2073526;28;20185;-69
2023/08/21 03:45:14;;;;;;;10.57;8.80;;;;;;;22.34;100.00;101612.69;2072401;28;20177;-69
2023/08/21 03:46:14;;;;;;;11.57;8.67;;;;;;;21.78;100.00;101529.19;2072588;28;20506;-69
2023/08/21 03:47:15;;;;;;;10.47;8.67;;;;;;;22.34;100.00;101624.00;2072967;28;20185;-69
2023/08/21 03:48:16;;;;;;;12.80;8.77;;;;;;;22.36;100.00;101615.84;2073204;28;20212;-69
2023/08/21 03:49:16;;;;;;;13.43;8.50;;;;;;;22.36;100.00;101621.47;2072567;28;20201;-69
2023/08/21 03:50:16;;;;;;;12.17;9.10;;;;;;;22.39;100.00;101621.28;2072224;28;20197;-69
2023/08/21 03:51:17;;;;;;;11.87;8.83;;;;;;;22.32;100.00;101613.19;2071395;28;20201;-69
2023/08/21 03:52:17;;;;;;;14.83;8.73;;;;;;;22.35;100.00;101617.88;2072352;28;20240;-69
2023/08/21 03:53:18;;;;;;;11.40;8.47;;;;;;;22.41;100.00;101617.97;2072865;28;20582;-69
2023/08/21 03:54:18;;;;;;;13.13;9.13;;;;;;;22.41;100.00;101617.97;2072995;28;20670;-69
2023/08/21 03:55:19;;;;;;;13.63;9.33;;;;;;;22.43;100.00;101621.06;2072953;28;20554;-69
2023/08/21 03:56:19;;;;;;;12.87;9.73;;;;;;;22.45;100.00;101615.72;2071287;28;20565;-69
2023/08/21 03:57:20;;;;;;;13.70;10.63;;;;;;;22.35;100.00;101594.47;2072688;28;20663;-69
2023/08/21 03:58:20;;;;;;;16.37;10.27;;;;;;;22.50;100.00;101610.16;2073372;28;20192;-69
2023/08/21 03:59:22;;;;;;;13.67;10.33;;;;;;;22.51;100.00;101614.53;2073068;28;20182;-69
2023/08/21 04:00:23;;;;;;;12.63;9.53;;;;;;;22.53;100.00;101617.69;2072329;28;20193;-69
2023/08/21 04:01:23;;;;;;;11.17;9.90;;;;;;;22.53;100.00;101612.03;2072291;28;20188;-69
2023/08/21 04:02:23;;;;;;;11.73;9.57;;;;;;;22.56;100.00;101611.03;2072050;28;20185;-69
2023/08/21 04:03:24;;;;;;;11.87;9.50;;;;;;;22.56;100.00;101607.44;2073078;28;20608;-69
2023/08/21 04:04:24;;;;;;;12.53;8.77;;;;;;;22.59;100.00;101600.78;2072828;28;20836;-69
2023/08/21 04:05:25;;;;;;;12.73;8.60;;;;;;;22.18;100.00;101551.91;2072779;28;20201;-69
2023/08/21 04:06:25;;;;;;;11.03;9.20;;;;;;;22.60;100.00;101611.59;2071620;28;20200;-69
2023/08/21 04:07:25;;;;;;;10.83;8.37;;;;;;;22.62;100.00;101611.88;2072676;28;20270;-69
2023/08/21 04:08:26;;;;;;;9.93;9.00;;;;;;;22.60;100.00;101602.34;2073228;28;20655;-68
2023/08/21 04:09:26;;;;;;;10.77;7.97;;;;;;;22.68;100.00;101612.72;2072330;28;20758;-69
2023/08/21 04:10:27;;;;;;;11.37;8.50;;;;;;;22.71;100.00;101608.94;2072692;28;20256;-69
2023/08/21 04:11:28;;;;;;;9.13;8.23;;;;;;;22.72;100.00;101613.31;2072913;28;20207;-69
2023/08/21 04:12:29;;;;;;;9.20;8.23;;;;;;;22.37;100.00;101555.25;2075462;28;20230;-69
2023/08/21 04:13:29;;;;;;;8.93;8.03;;;;;;;22.76;100.00;101599.75;2072943;28;20247;-68
2023/08/21 04:14:30;;;;;;;12.83;7.90;;;;;;;22.78;100.00;101608.50;2073224;28;20198;-69
2023/08/21 04:15:31;;;;;;;10.00;7.87;;;;;;;22.78;100.00;101610.56;2072528;28;20204;-69
2023/08/21 04:16:31;;;;;;;9.63;8.30;;;;;;;22.79;100.00;101614.94;2071765;28;20194;-69
2023/08/21 04:17:32;;;;;;;13.53;8.07;;;;;;;22.59;100.00;101575.38;2072709;28;20192;-69
2023/08/21 04:18:32;;;;;;;10.27;8.27;;;;;;;22.71;100.00;101591.97;2072146;28;20189;-69
2023/08/21 04:19:33;;;;;;;11.03;8.13;;;;;;;22.39;100.00;101547.06;2073304;28;20178;-69
2023/08/21 04:20:34;;;;;;;10.07;7.97;;;;;;;22.87;100.00;101614.03;2065455;28;20232;-69
2023/08/21 04:21:34;;;;;;;10.17;7.23;;;;;;;22.88;100.00;101609.94;2064945;28;20210;-69
2023/08/21 04:22:35;;;;;;;9.93;7.93;;;;;;;22.84;100.00;101600.91;2069708;28;20349;-69
2023/08/21 04:23:35;;;;;;;10.17;8.13;;;;;;;22.76;100.00;101594.09;2071835;28;20225;-69
2023/08/21 04:24:36;;;;;;;14.80;8.43;;;;;;;22.94;100.00;101616.47;2071489;28;20202;-69
2023/08/21 04:25:36;;;;;;;12.20;8.30;;;;;;;22.94;100.00;101619.28;2071657;28;20480;-69
2023/08/21 04:26:37;;;;;;;11.00;7.93;;;;;;;22.44;100.00;101538.69;2071577;28;20208;-70
2023/08/21 04:27:37;;;;;;;10.90;8.07;;;;;;;22.97;100.00;101621.09;2072190;28;20315;-69
2023/08/21 04:28:38;;;;;;;10.67;8.57;;;;;;;22.96;100.00;101618.75;2073403;28;20177;-69
2023/08/21 04:29:39;;;;;;;4.03;3.63;;;;;;;23.01;100.00;101624.50;2071553;28;20214;-62
2023/08/21 04:30:42;;;;;;;4.90;3.60;;;;;;;23.42;100.00;101620.41;2068066;28;20583;-59
2023/08/21 04:31:42;;;;;;;5.60;3.67;;;;;;;23.92;100.00;101627.41;2072704;28;20189;-58
2023/08/21 04:32:43;;;;;;;7.83;3.70;;;;;;;24.10;100.00;101624.19;2073277;28;20197;-60
2023/08/21 04:33:43;;;;;;;8.70;4.57;;;;;;;24.38;100.00;101628.03;2073138;28;20182;-61
2023/08/21 04:34:43;;;;;;;82.47;10.97;;;;;;;24.65;100.00;101624.66;2072122;28;20265;-57
2023/08/21 04:35:44;;;;;;;33.40;8.20;;;;;;;24.55;100.00;101586.41;2069466;28;20208;-59
2023/08/21 04:36:44;;;;;;;30.60;7.47;;;;;;;24.88;100.00;101609.28;2072493;28;20436;-60
2023/08/21 04:37:47;;;;;;;30.80;6.60;;;;;;;25.12;100.00;101623.84;2072840;28;20284;-57
2023/08/21 04:38:48;;;;;;;15.83;7.23;;;;;;;25.32;100.00;101620.09;2073550;28;20186;-57
2023/08/21 04:39:52;;;;;;;12.10;6.30;;;;;;;25.39;100.00;101619.63;2072858;28;20236;-59